Terminal Aerodrome Forecast
Issued by NWS

Home | Current Version | Previous Version | Text Only | Print | Product List | Glossary On
Versions: 1 2 3 4 5 6 7 8 9 10 11 12 13 14 15 16 17 18 19 20 21
000
FTUS46 KLOX 191015 AAA
TAFLGB
TAF AMD
KLGB 191015Z 1910/2006 13009KT P6SM -SHRA BKN015 BKN050
     FM191230 13015G22KT 3SM RA BR VCTS BKN015CB OVC025
     FM191700 25012G19KT P6SM -SHRA BKN025 BKN050
     FM192000 27018G25KT P6SM VCSH SCT025 BKN050
     FM200400 27012KT P6SM SCT025 BKN050=

USA.gov is the U.S. government's official web portal to all federal, state and local government web resources and services.